Time;durP1;ratioP1;P1;durP2;ratioP2;P2;SDS_P1;SDS_P2;PMS_P1;PMS_P2;Temp;Humidity;BMP_temperature;BMP_pressure;BME280_temperature;BME280_humidity;BME280_pressure;Samples;Min_cycle;Max_cycle;Signal;HPM_P1;HPM_P2
2022/01/27 00:00:49;;;;;;;29.37;10.70;;;;;;;9.85;100.00;101983.88;4853236;29;20566;-87
2022/01/27 00:03:30;;;;;;;27.40;9.23;;;;;;;9.94;100.00;101995.72;4842245;29;20452;-87
2022/01/27 00:06:06;;;;;;;32.60;10.70;;;;;;;9.95;100.00;101989.25;4842591;29;20464;-87
2022/01/27 00:08:46;;;;;;;18.90;8.43;;;;;;;9.99;100.00;101996.13;4842578;29;20464;-88
2022/01/27 00:11:15;;;;;;;20.60;8.97;;;;;;;9.97;100.00;101989.94;4842136;29;20464;-87
2022/01/27 00:13:54;;;;;;;15.57;8.33;;;;;;;9.97;100.00;101996.28;4842791;29;20444;-87
2022/01/27 00:16:27;;;;;;;17.13;7.60;;;;;;;9.92;100.00;101984.97;4854477;29;20480;-87
2022/01/27 00:18:55;;;;;;;19.70;7.40;;;;;;;9.95;100.00;101992.84;4843015;29;20822;-87
2022/01/27 00:21:28;;;;;;;22.23;9.00;;;;;;;9.96;100.00;101994.56;4842281;29;20919;-86
2022/01/27 00:23:56;;;;;;;21.77;7.97;;;;;;;9.97;100.00;101996.28;4843125;29;20448;-87
2022/01/27 00:26:24;;;;;;;16.37;7.53;;;;;;;9.93;100.00;101994.88;4842318;29;20607;-88
2022/01/27 00:28:58;;;;;;;14.60;6.83;;;;;;;9.92;100.00;101997.75;4841920;29;20456;-87
2022/01/27 00:31:28;;;;;;;16.97;6.77;;;;;;;9.88;100.00;101997.22;4841693;29;20836;-87
2022/01/27 00:33:57;;;;;;;15.90;7.60;;;;;;;9.86;100.00;102003.84;4844589;29;20444;-87
2022/01/27 00:36:26;;;;;;;16.53;6.23;;;;;;;9.77;100.00;101989.28;4861349;29;20450;-87
2022/01/27 00:38:54;;;;;;;17.10;6.67;;;;;;;9.72;100.00;101990.75;4849351;29;20467;-87
2022/01/27 00:41:23;;;;;;;23.00;6.60;;;;;;;9.68;100.00;101996.53;4861033;29;21020;-87
2022/01/27 00:43:52;;;;;;;18.77;6.47;;;;;;;9.66;100.00;101995.81;4861648;29;20488;-87
2022/01/27 00:46:20;;;;;;;14.43;6.30;;;;;;;9.64;100.00;101989.66;4861233;29;20444;-87
2022/01/27 00:48:50;;;;;;;15.57;6.30;;;;;;;9.56;100.00;101983.28;4846432;29;20480;-86
2022/01/27 00:51:23;;;;;;;17.07;7.30;;;;;;;9.50;100.00;101983.91;4861979;29;20947;-86
2022/01/27 00:54:04;;;;;;;16.90;6.93;;;;;;;9.45;100.00;101983.50;4846176;29;20452;-86
2022/01/27 00:56:52;;;;;;;15.00;7.13;;;;;;;9.42;100.00;101984.72;4861255;29;20435;-86
2022/01/27 01:02:26;;;;;;;22.53;7.30;;;;;;;9.36;100.00;101979.88;4860139;29;20491;-86
2022/01/27 01:05:14;;;;;;;16.87;6.40;;;;;;;9.34;100.00;101982.75;4848089;29;20450;-86
2022/01/27 01:07:45;;;;;;;17.47;6.80;;;;;;;9.30;100.00;101988.66;4847969;29;20491;-86
2022/01/27 01:11:23;;;;;;;13.37;6.50;;;;;;;9.26;100.00;101971.75;4846342;29;20443;-86
2022/01/27 01:14:02;;;;;;;17.50;7.57;;;;;;;9.22;100.00;101969.50;4855562;29;20451;-86
2022/01/27 01:16:00;;;;;;;14.60;7.50;;;;;;;9.16;100.00;101970.13;4860624;29;20951;-86
2022/01/27 01:18:49;;;;;;;17.53;8.73;;;;;;;9.16;100.00;101975.56;4845489;29;20451;-86
2022/01/27 01:21:55;;;;;;;15.60;7.17;;;;;;;9.12;100.00;101975.00;4846881;29;20507;-86
2022/01/27 01:32:51;;;;;;;18.67;6.10;;;;;;;8.93;100.00;101969.69;4860522;29;20511;-86
2022/01/27 01:35:27;;;;;;;15.93;6.13;;;;;;;8.92;100.00;101967.97;4846186;29;20479;-86
2022/01/27 01:37:58;;;;;;;16.17;5.50;;;;;;;8.89;100.00;101971.84;4846639;29;20443;-86
2022/01/27 01:40:27;;;;;;;9.73;5.20;;;;;;;8.92;100.00;101981.59;4845157;29;20479;-86
2022/01/27 01:43:01;;;;;;;19.50;5.30;;;;;;;8.83;100.00;101971.63;4844904;29;20479;-86
2022/01/27 01:45:33;;;;;;;8.67;5.10;;;;;;;8.80;100.00;101967.34;4845280;29;20495;-86
2022/01/27 01:48:02;;;;;;;9.53;5.00;;;;;;;8.83;100.00;101972.50;4807943;29;20442;-86
2022/01/27 01:54:17;;;;;;;10.83;5.03;;;;;;;8.83;100.00;101982.53;4795436;30;20474;-86
2022/01/27 01:57:37;;;;;;;12.27;5.77;;;;;;;8.82;100.00;101978.94;4797065;30;20792;-87
2022/01/27 02:00:08;;;;;;;17.13;8.17;;;;;;;8.83;100.00;101977.09;4800695;29;20514;-87
2022/01/27 02:02:36;;;;;;;21.50;8.27;;;;;;;8.81;100.00;101981.81;4811697;29;20470;-86
2022/01/27 02:05:05;;;;;;;21.97;8.80;;;;;;;8.76;99.99;101982.28;4813054;29;20466;-86
2022/01/27 02:07:51;;;;;;;17.00;7.33;;;;;;;8.73;100.00;101977.13;4835291;29;20425;-85
2022/01/27 02:17:58;;;;;;;17.30;7.47;;;;;;;8.75;100.00;101980.56;4881267;29;20462;-87
2022/01/27 02:19:22;;;;;;;26.40;9.70;;;;;;;8.69;100.00;101983.88;4876584;29;20455;-86
2022/01/27 02:21:52;;;;;;;20.80;8.00;;;;;;;8.71;100.00;101989.19;4847964;29;20506;-87
2022/01/27 02:24:22;;;;;;;11.73;5.27;;;;;;;8.68;100.00;101979.44;4878718;29;20447;-87
2022/01/27 02:26:52;;;;;;;13.40;4.80;;;;;;;8.66;100.00;101976.84;4848353;29;20439;-87
2022/01/27 02:29:21;;;;;;;13.23;5.07;;;;;;;8.72;100.00;101988.16;4863563;29;20453;-87
2022/01/27 02:31:51;;;;;;;16.40;7.70;;;;;;;8.57;100.00;101963.28;4848479;29;20444;-87
2022/01/27 02:34:19;;;;;;;18.43;6.50;;;;;;;8.64;99.81;101972.59;4863373;29;20463;-87
2022/01/27 02:36:47;;;;;;;10.43;5.77;;;;;;;8.68;100.00;101982.16;4848336;29;20447;-87
2022/01/27 02:39:18;;;;;;;15.33;4.60;;;;;;;8.59;99.84;101980.34;4866615;29;20498;-87
2022/01/27 02:41:51;;;;;;;9.53;4.03;;;;;;;8.57;99.97;101971.47;4881842;29;20577;-88
2022/01/27 02:44:46;;;;;;;9.90;4.13;;;;;;;8.61;100.00;101978.34;4867606;29;20438;-87
2022/01/27 02:47:15;;;;;;;16.27;4.60;;;;;;;8.62;100.00;101988.22;4882043;29;20837;-87
2022/01/27 02:49:43;;;;;;;12.60;4.57;;;;;;;8.55;99.68;101978.94;4866508;29;20529;-87
2022/01/27 02:52:12;;;;;;;9.83;4.57;;;;;;;8.47;99.50;101971.50;4881546;29;20498;-87
2022/01/27 02:54:42;;;;;;;8.07;3.70;;;;;;;8.52;99.91;101984.69;4866768;29;20453;-87
2022/01/27 02:57:23;;;;;;;6.77;3.63;;;;;;;8.52;99.87;101976.50;4868257;29;21598;-86
2022/01/27 02:59:53;;;;;;;8.27;3.80;;;;;;;8.49;100.00;101979.53;4866379;29;20462;-87
2022/01/27 03:02:25;;;;;;;16.80;3.90;;;;;;;8.36;100.00;101957.22;4851728;29;20514;-87
2022/01/27 03:04:55;;;;;;;11.03;3.50;;;;;;;8.47;99.95;101976.09;4866515;29;20442;-87
2022/01/27 03:07:22;;;;;;;12.23;4.10;;;;;;;8.51;100.00;101975.66;4866613;29;20819;-87
2022/01/27 03:10:00;;;;;;;10.77;3.40;;;;;;;8.41;99.75;101965.81;4851049;29;20449;-87
2022/01/27 03:12:30;;;;;;;12.53;3.83;;;;;;;8.44;100.00;101970.97;4882293;29;20459;-86
2022/01/27 03:14:58;;;;;;;12.63;4.30;;;;;;;8.44;99.83;101976.41;4881535;29;20450;-86
2022/01/27 03:17:26;;;;;;;10.50;4.07;;;;;;;8.39;99.47;101967.81;4850722;29;20469;-87
2022/01/27 03:19:55;;;;;;;5.20;3.30;;;;;;;8.35;99.77;101964.53;4865716;29;21028;-86
2022/01/27 03:22:24;;;;;;;12.33;4.60;;;;;;;8.32;99.61;101965.69;4850736;29;20573;-87
2022/01/27 03:24:52;;;;;;;11.63;4.70;;;;;;;8.34;100.00;101968.25;4850132;29;20802;-87
2022/01/27 03:27:24;;;;;;;8.40;3.90;;;;;;;8.34;100.00;101972.84;4850428;29;20465;-87
2022/01/27 03:29:54;;;;;;;9.37;4.87;;;;;;;8.30;99.73;101962.22;4852072;29;20439;-87
2022/01/27 03:32:25;;;;;;;8.67;4.33;;;;;;;8.20;99.94;101952.38;4881225;29;20443;-86
2022/01/27 03:34:54;;;;;;;13.27;4.70;;;;;;;8.29;99.66;101957.78;4881101;29;20442;-86
2022/01/27 03:37:23;;;;;;;8.37;4.13;;;;;;;8.26;99.74;101957.25;4850587;29;20474;-86
2022/01/27 03:39:52;;;;;;;17.73;4.67;;;;;;;8.23;99.68;101946.63;4881077;29;20475;-87
2022/01/27 03:42:20;;;;;;;7.90;3.30;;;;;;;8.20;99.63;101942.34;4881329;29;20474;-87
2022/01/27 03:44:54;;;;;;;17.13;5.20;;;;;;;8.12;99.98;101936.78;4850703;29;20510;-87
2022/01/27 03:47:23;;;;;;;10.27;4.67;;;;;;;8.18;100.00;101944.34;4880574;29;20442;-87
2022/01/27 03:49:52;;;;;;;8.53;4.60;;;;;;;8.18;99.67;101949.81;4865358;29;20447;-87
2022/01/27 03:52:20;;;;;;;11.40;3.60;;;;;;;8.14;99.57;101948.38;4850327;29;20885;-86
2022/01/27 03:54:48;;;;;;;6.93;3.10;;;;;;;8.10;99.65;101949.66;4865321;29;20898;-86
2022/01/27 03:57:17;;;;;;;8.20;3.40;;;;;;;8.01;99.33;101941.56;4851168;29;20451;-87
2022/01/27 03:59:44;;;;;;;7.20;2.80;;;;;;;7.98;99.90;101942.69;4868263;29;20481;-87
2022/01/27 04:02:12;;;;;;;9.47;3.37;;;;;;;8.03;99.51;101947.72;4857229;29;20586;-86
2022/01/27 04:04:40;;;;;;;8.10;3.90;;;;;;;7.99;100.00;101944.41;4846377;29;20456;-87
2022/01/27 04:07:09;;;;;;;10.63;4.93;;;;;;;8.00;100.00;101950.72;4846710;29;20462;-86
2022/01/27 04:09:38;;;;;;;9.37;3.37;;;;;;;7.97;100.00;101947.28;4861869;29;20849;-87
2022/01/27 04:12:06;;;;;;;10.27;4.17;;;;;;;7.98;100.00;101948.16;4846933;29;20777;-87
2022/01/27 04:14:37;;;;;;;8.80;3.40;;;;;;;7.99;100.00;101949.88;4864838;29;20452;-86
2022/01/27 04:17:04;;;;;;;10.57;4.10;;;;;;;7.82;99.59;101934.28;4899036;29;20486;-87
2022/01/27 04:19:32;;;;;;;8.93;3.83;;;;;;;7.87;100.00;101940.16;4883777;29;20450;-87
2022/01/27 04:22:00;;;;;;;12.97;3.80;;;;;;;7.91;100.00;101947.00;4883258;29;21014;-87
2022/01/27 04:24:28;;;;;;;11.30;3.47;;;;;;;7.89;100.00;101935.41;4883273;29;20445;-87
2022/01/27 04:27:04;;;;;;;17.00;5.40;;;;;;;7.94;100.00;101944.00;4868300;29;20533;-87
2022/01/27 04:29:35;;;;;;;9.07;3.67;;;;;;;7.94;100.00;101946.72;4894018;29;20967;-87
2022/01/27 04:32:08;;;;;;;11.23;3.47;;;;;;;7.94;100.00;101941.28;4865565;29;20431;-86
2022/01/27 04:34:40;;;;;;;8.87;3.17;;;;;;;7.96;100.00;101944.72;4875584;29;20820;-87
2022/01/27 04:37:11;;;;;;;13.57;3.60;;;;;;;7.95;100.00;101937.53;4896819;29;20544;-87
2022/01/27 04:39:55;;;;;;;7.80;3.27;;;;;;;7.95;99.72;101945.72;4878618;29;20467;-86
2022/01/27 04:42:39;;;;;;;15.53;3.43;;;;;;;7.91;99.94;101942.41;4894567;29;20545;-87
2022/01/27 04:45:18;;;;;;;8.10;2.83;;;;;;;7.87;100.00;101929.28;4891393;29;20462;-87
2022/01/27 04:47:54;;;;;;;9.93;3.57;;;;;;;7.88;100.00;101947.31;4849080;29;20458;-87
2022/01/27 04:50:22;;;;;;;9.23;3.40;;;;;;;7.85;99.88;101947.63;4879405;29;20485;-86
2022/01/27 04:52:53;;;;;;;10.33;3.03;;;;;;;7.78;99.93;101935.59;4847974;29;20483;-87
2022/01/27 04:55:23;;;;;;;7.27;2.50;;;;;;;7.76;100.00;101933.00;4864476;29;20457;-86
2022/01/27 04:58:07;;;;;;;6.63;2.97;;;;;;;7.76;100.00;101929.44;4849492;29;20493;-87
2022/01/27 05:00:36;;;;;;;10.90;2.50;;;;;;;7.77;100.00;101937.44;4866378;29;20439;-87
2022/01/27 05:03:15;;;;;;;6.27;3.03;;;;;;;7.76;100.00;101932.16;4849202;29;20482;-87
2022/01/27 05:05:43;;;;;;;8.97;3.17;;;;;;;7.80;100.00;101939.03;4865535;29;20965;-86
2022/01/27 05:08:16;;;;;;;6.93;3.00;;;;;;;7.83;100.00;101936.88;4860383;29;20479;-86
2022/01/27 05:11:02;;;;;;;6.43;2.97;;;;;;;7.75;100.00;101931.28;4874799;29;20455;-86
2022/01/27 05:13:39;;;;;;;10.33;3.20;;;;;;;7.80;100.00;101939.88;4860453;29;20455;-87
2022/01/27 05:16:07;;;;;;;6.60;2.47;;;;;;;7.81;100.00;101935.31;4860574;29;20444;-86
2022/01/27 05:18:35;;;;;;;7.43;2.77;;;;;;;7.78;100.00;101930.16;4845356;29;20451;-87
2022/01/27 05:21:05;;;;;;;4.43;2.70;;;;;;;7.80;100.00;101939.03;4830510;29;20463;-86
2022/01/27 05:23:33;;;;;;;8.50;2.57;;;;;;;7.78;100.00;101941.03;4876863;29;20454;-87
2022/01/27 05:26:02;;;;;;;7.23;2.07;;;;;;;7.75;100.00;101942.19;4863826;29;20450;-86
2022/01/27 05:28:31;;;;;;;6.23;2.43;;;;;;;7.73;100.00;101943.31;4878859;29;20453;-87
2022/01/27 05:31:01;;;;;;;5.30;3.03;;;;;;;7.74;100.00;101945.91;4848419;29;20446;-86
2022/01/27 05:33:32;;;;;;;6.73;2.23;;;;;;;7.70;100.00;101935.47;4864163;29;20439;-87
2022/01/27 05:36:02;;;;;;;7.20;2.10;;;;;;;7.70;100.00;101938.19;4848427;29;20446;-87
2022/01/27 05:38:29;;;;;;;6.60;2.50;;;;;;;7.70;100.00;101939.03;4860017;29;20459;-86
2022/01/27 05:40:58;;;;;;;11.97;2.27;;;;;;;7.71;100.00;101950.78;4847882;29;20446;-86
2022/01/27 05:43:26;;;;;;;5.03;2.27;;;;;;;7.70;100.00;101949.09;4863606;29;20446;-87
2022/01/27 05:45:54;;;;;;;11.30;2.60;;;;;;;7.64;100.00;101950.50;4848452;29;20447;-86
2022/01/27 05:48:26;;;;;;;10.10;2.37;;;;;;;7.69;100.00;101955.53;4847875;29;20465;-86
2022/01/27 05:50:54;;;;;;;5.90;3.23;;;;;;;7.68;100.00;101967.41;4862699;29;21017;-86
2022/01/27 05:53:24;;;;;;;11.73;2.70;;;;;;;7.63;100.00;101959.69;4859460;29;20459;-86
2022/01/27 05:55:52;;;;;;;9.50;2.13;;;;;;;7.63;100.00;101965.97;4857020;29;20460;-86
2022/01/27 05:58:21;;;;;;;5.60;2.50;;;;;;;7.61;100.00;101962.53;4872108;29;20475;-86
2022/01/27 06:00:49;;;;;;;10.40;2.60;;;;;;;7.56;100.00;101958.53;4863061;29;21055;-86
2022/01/27 06:03:17;;;;;;;11.50;3.10;;;;;;;7.61;100.00;101967.97;4847997;29;20490;-86
2022/01/27 06:05:48;;;;;;;6.87;2.70;;;;;;;7.61;100.00;101972.56;4848597;29;20486;-87
2022/01/27 06:08:17;;;;;;;8.30;2.73;;;;;;;7.58;100.00;101964.69;4878002;29;20935;-86
2022/01/27 06:10:45;;;;;;;8.13;1.83;;;;;;;7.49;100.00;101966.44;4862691;29;20495;-86
2022/01/27 06:13:13;;;;;;;8.67;2.43;;;;;;;7.52;100.00;101968.81;4847712;29;20450;-86
2022/01/27 06:15:40;;;;;;;10.20;2.53;;;;;;;7.59;100.00;101978.16;4848055;29;20570;-86
2022/01/27 06:18:10;;;;;;;6.33;2.27;;;;;;;7.70;100.00;101981.72;4863301;29;20447;-86
2022/01/27 06:20:39;;;;;;;12.73;2.93;;;;;;;7.77;100.00;101977.41;4859529;29;20483;-86
2022/01/27 06:23:11;;;;;;;3.63;2.13;;;;;;;7.93;100.00;101983.09;4833398;29;21001;-86
2022/01/27 06:25:39;;;;;;;7.73;2.60;;;;;;;8.12;100.00;101980.34;4863183;29;20450;-86
2022/01/27 06:28:07;;;;;;;19.90;2.97;;;;;;;8.25;100.00;101982.75;4877792;29;20454;-87
2022/01/27 06:30:35;;;;;;;8.67;3.23;;;;;;;8.44;100.00;101981.88;4878482;29;20539;-86
2022/01/27 06:33:06;;;;;;;10.10;2.80;;;;;;;8.62;100.00;101980.06;4848317;29;20464;-87
2022/01/27 06:35:36;;;;;;;11.20;2.53;;;;;;;8.89;100.00;101987.34;4863224;29;20527;-86
2022/01/27 06:38:04;;;;;;;11.47;2.60;;;;;;;9.09;100.00;101990.81;4877974;29;20529;-86
2022/01/27 06:40:36;;;;;;;16.50;3.30;;;;;;;9.25;100.00;101989.13;4846001;29;20839;-86
2022/01/27 06:43:05;;;;;;;12.13;3.00;;;;;;;9.37;100.00;101986.19;4862249;29;20482;-87
2022/01/27 06:45:33;;;;;;;16.10;2.53;;;;;;;9.44;100.00;101988.13;4879323;29;20453;-87
2022/01/27 06:48:03;;;;;;;20.83;2.80;;;;;;;9.50;100.00;101989.38;4846977;29;21032;-86
2022/01/27 06:50:36;;;;;;;9.80;2.60;;;;;;;9.55;100.00;101989.75;4862939;29;20862;-85
2022/01/27 06:53:05;;;;;;;13.87;3.17;;;;;;;9.57;100.00;101991.31;4863623;29;20483;-87
2022/01/27 06:55:33;;;;;;;13.67;3.00;;;;;;;9.58;100.00;101995.78;4863074;29;20474;-87
2022/01/27 06:58:01;;;;;;;13.37;2.73;;;;;;;9.63;100.00;102006.19;4877655;29;20450;-87
2022/01/27 07:00:30;;;;;;;11.77;3.00;;;;;;;9.64;100.00;102008.78;4849406;29;20446;-86
2022/01/27 07:02:58;;;;;;;9.87;2.00;;;;;;;9.65;100.00;102007.75;4847700;29;20479;-86
2022/01/27 07:05:30;;;;;;;9.60;2.90;;;;;;;9.68;100.00;102001.13;4863861;29;20450;-86
2022/01/27 07:08:04;;;;;;;13.03;2.80;;;;;;;9.66;100.00;102001.28;4866917;29;20457;-87
2022/01/27 07:10:35;;;;;;;20.43;3.40;;;;;;;9.68;100.00;102012.06;4851591;29;20965;-87
2022/01/27 07:13:04;;;;;;;11.67;3.10;;;;;;;9.68;100.00;102012.91;4882198;29;20450;-86
2022/01/27 07:15:32;;;;;;;13.43;3.40;;;;;;;9.63;100.00;102009.78;4866268;29;20443;-87
2022/01/27 07:18:00;;;;;;;12.00;2.87;;;;;;;9.58;100.00;102006.69;4847379;29;20448;-86
2022/01/27 07:20:28;;;;;;;11.50;2.83;;;;;;;9.56;100.00;102011.44;4846850;29;20471;-86
2022/01/27 07:22:58;;;;;;;10.60;2.83;;;;;;;9.54;100.00;102004.41;4850450;29;20493;-86
2022/01/27 07:25:26;;;;;;;10.60;2.60;;;;;;;9.53;100.00;102025.41;4880957;29;20454;-87
2022/01/27 07:27:59;;;;;;;11.80;2.50;;;;;;;9.49;100.00;102006.75;4851447;29;20529;-86
2022/01/27 07:30:29;;;;;;;22.67;4.17;;;;;;;9.49;100.00;102015.81;4865489;29;21021;-87
2022/01/27 07:32:58;;;;;;;12.30;3.03;;;;;;;9.53;100.00;102019.94;4846961;29;20459;-86
2022/01/27 07:35:26;;;;;;;16.50;2.43;;;;;;;9.56;100.00;102027.81;4865329;29;20487;-87
2022/01/27 07:37:55;;;;;;;9.73;3.40;;;;;;;9.55;100.00;102017.91;4862853;29;20452;-87
2022/01/27 07:40:25;;;;;;;10.83;3.33;;;;;;;9.52;100.00;102022.81;4879424;29;20473;-87
2022/01/27 07:43:12;;;;;;;9.77;2.73;;;;;;;9.43;100.00;102021.88;4868827;29;20481;-86
2022/01/27 07:45:40;;;;;;;16.63;3.03;;;;;;;9.41;100.00;102026.66;4862561;29;20834;-86
2022/01/27 07:48:09;;;;;;;11.80;2.50;;;;;;;9.35;100.00;102019.06;4868870;29;20941;-87
2022/01/27 07:50:37;;;;;;;16.57;3.10;;;;;;;9.40;100.00;102022.22;4889529;29;20431;-87
2022/01/27 07:53:05;;;;;;;9.00;2.33;;;;;;;9.43;100.00;102032.78;4865853;29;20458;-87
2022/01/27 07:55:33;;;;;;;8.50;2.50;;;;;;;9.45;100.00;102027.16;4865249;29;20443;-86
2022/01/27 07:58:00;;;;;;;18.93;3.27;;;;;;;9.44;100.00;102029.03;4865360;29;20455;-87
2022/01/27 08:00:28;;;;;;;9.63;3.10;;;;;;;9.31;100.00;102025.84;4850325;29;20451;-87
2022/01/27 08:02:56;;;;;;;10.57;3.13;;;;;;;9.35;100.00;102033.56;4850264;29;20492;-86
2022/01/27 08:05:24;;;;;;;14.80;3.13;;;;;;;9.29;100.00;102045.09;4850159;29;20542;-87
2022/01/27 08:07:56;;;;;;;16.70;3.67;;;;;;;9.28;100.00;102050.69;4880848;29;20447;-87
2022/01/27 08:10:23;;;;;;;14.00;3.00;;;;;;;9.21;100.00;102042.28;4880864;29;20463;-88
2022/01/27 08:12:52;;;;;;;12.40;3.07;;;;;;;9.19;100.00;102043.44;4867107;29;20494;-88
2022/01/27 08:15:39;;;;;;;10.70;3.40;;;;;;;9.19;100.00;102051.63;4870110;29;20454;-88
2022/01/27 08:18:43;;;;;;;16.67;3.20;;;;;;;9.16;100.00;102060.13;4886882;29;20454;-88
2022/01/27 08:21:11;;;;;;;17.10;2.87;;;;;;;9.16;100.00;102060.13;4869043;29;20483;-88
2022/01/27 08:23:43;;;;;;;14.73;3.47;;;;;;;9.09;100.00;102042.63;4849469;29;20546;-88
2022/01/27 08:26:14;;;;;;;8.30;3.03;;;;;;;9.22;100.00;102056.78;4902757;29;20441;-87
2022/01/27 08:28:49;;;;;;;23.70;3.83;;;;;;;9.30;100.00;102051.41;4898581;29;20429;-89
2022/01/27 08:31:17;;;;;;;83.87;7.93;;;;;;;9.34;100.00;102058.28;4889221;29;20443;-89
2022/01/27 08:33:44;;;;;;;31.80;5.63;;;;;;;9.44;100.00;102069.13;4903966;29;20441;-89
2022/01/27 08:36:17;;;;;;;20.53;3.60;;;;;;;9.49;100.00;102067.66;4869610;29;20430;-90
2022/01/27 08:38:49;;;;;;;16.27;3.93;;;;;;;9.54;100.00;102070.78;4883580;29;20577;-90
2022/01/27 08:41:16;;;;;;;60.10;8.70;;;;;;;9.60;100.00;102059.25;4873892;29;20488;-88
2022/01/27 08:43:46;;;;;;;147.50;17.87;;;;;;;9.76;100.00;102074.06;4883819;29;20481;-89
2022/01/27 08:46:14;;;;;;;44.77;8.43;;;;;;;9.82;100.00;102076.16;4867158;29;20489;-90
2022/01/27 08:48:43;;;;;;;40.27;7.47;;;;;;;9.95;100.00;102087.56;4883228;29;20449;-89
2022/01/27 08:51:21;;;;;;;45.47;6.50;;;;;;;10.06;100.00;102087.31;4867884;29;20931;-89
2022/01/27 08:53:53;;;;;;;12.60;3.20;;;;;;;10.20;100.00;102089.50;4868601;29;20821;-88
2022/01/27 08:56:21;;;;;;;7.60;2.93;;;;;;;10.27;100.00;102079.66;4899659;29;20557;-90
2022/01/27 08:58:50;;;;;;;26.03;3.53;;;;;;;10.37;100.00;102088.63;4864323;29;20457;-89
2022/01/27 09:01:22;;;;;;;15.53;4.10;;;;;;;10.47;100.00;102085.78;4883734;29;20505;-88
2022/01/27 09:03:51;;;;;;;12.30;2.47;;;;;;;10.55;100.00;102088.59;4897745;29;20513;-89
2022/01/27 09:06:23;;;;;;;15.33;2.83;;;;;;;10.67;100.00;102086.44;4868070;29;20493;-89
2022/01/27 09:09:02;;;;;;;12.67;3.90;;;;;;;10.84;100.00;102104.66;4884731;29;20433;-90
2022/01/27 09:11:31;;;;;;;20.70;2.93;;;;;;;10.92;100.00;102093.75;4884387;29;20449;-89
2022/01/27 09:14:05;;;;;;;21.87;3.83;;;;;;;11.06;100.00;102105.97;4860493;29;20550;-90
2022/01/27 09:16:34;;;;;;;6.87;2.30;;;;;;;11.26;100.00;102112.03;4865119;29;20816;-91
2022/01/27 09:19:25;;;;;;;12.63;2.77;;;;;;;11.42;100.00;102110.22;4867787;29;21013;-90
2022/01/27 09:21:54;;;;;;;28.97;4.23;;;;;;;11.56;100.00;102108.72;4880072;29;20478;-90
2022/01/27 09:24:36;;;;;;;15.10;3.50;;;;;;;11.69;99.64;102105.50;4879957;29;20558;-90
2022/01/27 09:27:06;;;;;;;12.43;2.60;;;;;;;11.81;99.25;102108.81;4844936;29;20460;-90
2022/01/27 09:29:37;;;;;;;6.10;2.30;;;;;;;11.93;99.13;102112.97;4847038;29;20448;-90
2022/01/27 09:32:05;;;;;;;24.07;3.00;;;;;;;12.01;98.35;102121.16;4880277;29;20454;-89
2022/01/27 09:34:34;;;;;;;8.60;3.20;;;;;;;12.07;97.70;102115.03;4864321;29;20550;-90
2022/01/27 09:37:02;;;;;;;14.17;3.03;;;;;;;12.19;97.20;102124.59;4856031;29;20453;-86
2022/01/27 09:39:34;;;;;;;12.70;2.63;;;;;;;12.28;96.73;102126.34;4867393;29;20511;-84
2022/01/27 09:42:03;;;;;;;22.27;3.43;;;;;;;12.41;96.57;102129.41;4878058;29;20465;-83
2022/01/27 09:44:32;;;;;;;9.33;3.20;;;;;;;12.57;95.99;102133.16;4848210;29;20455;-84
2022/01/27 09:47:30;;;;;;;14.87;3.27;;;;;;;12.67;94.58;102134.72;4862737;29;20455;-83
2022/01/27 09:52:41;;;;;;;11.07;2.90;;;;;;;12.87;91.53;102139.81;4865983;29;20474;-86
2022/01/27 09:55:09;;;;;;;14.30;3.47;;;;;;;12.95;91.79;102148.03;4851442;29;20565;-86
2022/01/27 09:57:38;;;;;;;16.80;3.67;;;;;;;13.02;91.58;102136.19;4863191;29;20438;-86
2022/01/27 10:00:06;;;;;;;17.57;3.90;;;;;;;13.21;91.39;102153.31;4859522;29;20443;-86
2022/01/27 10:02:43;;;;;;;16.90;4.97;;;;;;;13.26;90.37;102142.66;4861319;29;20996;-86
2022/01/27 10:05:14;;;;;;;12.10;3.10;;;;;;;13.36;89.11;102140.56;4864221;29;20818;-86
2022/01/27 10:07:48;;;;;;;8.23;2.23;;;;;;;13.40;89.18;102129.03;4862563;29;20973;-87
2022/01/27 10:10:22;;;;;;;14.23;2.80;;;;;;;13.60;89.17;102154.19;4848602;29;20541;-87
2022/01/27 10:12:53;;;;;;;18.47;3.40;;;;;;;13.66;87.89;102139.72;4863555;29;20570;-87
2022/01/27 10:15:22;;;;;;;16.27;3.90;;;;;;;13.76;87.17;102137.59;4862590;29;20961;-86
2022/01/27 10:18:10;;;;;;;9.87;3.50;;;;;;;13.88;86.06;102148.19;4877929;29;20457;-86
2022/01/27 10:57:34;;;;;;;35.43;9.50;;;;;;;14.66;85.74;102146.06;4869863;29;20461;-87
2022/01/27 11:12:07;;;;;;;23.17;5.60;;;;;;;15.25;81.30;102159.03;4883093;29;20414;-88
2022/01/27 11:14:37;;;;;;;30.27;6.83;;;;;;;15.33;80.68;102143.28;4881116;29;20541;-88
2022/01/27 11:17:06;;;;;;;22.80;5.90;;;;;;;15.49;80.24;102144.97;4846025;29;20470;-88
2022/01/27 11:22:40;;;;;;;21.60;3.33;;;;;;;15.63;77.86;102144.13;4871800;29;20458;-88
2022/01/27 11:25:19;;;;;;;23.93;4.70;;;;;;;15.73;77.16;102139.16;4893984;29;20853;-88
2022/01/27 11:27:48;;;;;;;24.30;6.43;;;;;;;15.92;77.00;102136.84;4900148;29;20528;-88
2022/01/27 11:30:56;;;;;;;19.03;5.90;;;;;;;16.08;76.65;102133.81;4855488;29;20447;-88
2022/01/27 11:33:35;;;;;;;30.23;5.80;;;;;;;16.25;76.24;102127.00;4873256;29;20450;-85
2022/01/27 11:36:09;;;;;;;22.63;3.07;;;;;;;16.36;75.57;102139.41;4873689;29;20935;-84
2022/01/27 11:38:49;;;;;;;22.63;3.27;;;;;;;16.39;75.20;102139.84;4874720;29;20450;-84
2022/01/27 11:41:57;;;;;;;16.67;2.90;;;;;;;16.50;74.14;102128.31;4900432;29;20497;-85
2022/01/27 11:44:34;;;;;;;7.40;2.07;;;;;;;16.58;73.48;102128.13;4897927;29;20491;-85
2022/01/27 11:47:32;;;;;;;20.83;3.67;;;;;;;16.70;73.89;102131.25;4882043;29;20868;-86
2022/01/27 11:50:17;;;;;;;15.03;2.67;;;;;;;16.75;73.12;102127.88;4841927;29;20476;-85
2022/01/27 11:52:59;;;;;;;9.47;2.73;;;;;;;16.77;72.58;102123.00;4819407;29;20490;-85
2022/01/27 11:55:40;;;;;;;11.77;2.57;;;;;;;16.74;72.69;102113.22;4809569;29;20501;-86
2022/01/27 11:58:20;;;;;;;15.17;2.87;;;;;;;16.78;72.88;102117.28;4794296;29;20488;-85
2022/01/27 12:01:11;;;;;;;14.20;4.13;;;;;;;16.82;73.45;102113.06;4823847;29;20536;-84
2022/01/27 12:03:39;;;;;;;9.47;3.07;;;;;;;16.99;73.86;102110.84;4823812;29;21016;-86
2022/01/27 12:06:16;;;;;;;15.77;2.83;;;;;;;17.22;73.73;102114.19;4790640;29;20497;-87
2022/01/27 12:08:44;;;;;;;14.80;4.30;;;;;;;17.32;73.35;102102.72;4801482;29;20468;-86
2022/01/27 12:11:44;;;;;;;40.87;9.70;;;;;;;17.49;73.05;102115.19;4822509;29;20453;-85
2022/01/27 12:14:16;;;;;;;28.00;10.00;;;;;;;17.57;72.60;102112.22;4815856;29;21032;-86
2022/01/27 12:19:15;;;;;;;7.50;2.20;;;;;;;17.58;72.43;102096.47;4803022;29;20864;-85
2022/01/27 12:21:46;;;;;;;19.77;3.20;;;;;;;17.72;72.35;102094.63;4806896;29;20456;-87
2022/01/27 12:24:16;;;;;;;8.97;1.93;;;;;;;17.78;72.44;102100.19;4817999;29;20497;-84
2022/01/27 12:27:01;;;;;;;12.27;2.23;;;;;;;17.84;72.46;102096.59;4826035;29;20447;-84
2022/01/27 12:29:28;;;;;;;14.87;1.87;;;;;;;17.85;72.15;102087.25;4865364;29;20530;-84
2022/01/27 12:32:17;;;;;;;10.50;2.90;;;;;;;17.88;72.96;102078.53;4880643;29;20479;-84
2022/01/27 12:34:55;;;;;;;10.93;2.30;;;;;;;18.03;73.23;102083.03;4873295;29;20515;-85
2022/01/27 12:37:25;;;;;;;17.93;2.50;;;;;;;18.04;72.02;102068.13;4876359;29;20451;-84
2022/01/27 12:39:57;;;;;;;17.53;2.17;;;;;;;18.05;71.03;102070.69;4854614;29;20463;-88
2022/01/27 12:42:35;;;;;;;14.00;2.20;;;;;;;18.03;70.86;102066.44;4860487;29;20458;-85
2022/01/27 12:45:12;;;;;;;9.70;2.33;;;;;;;18.01;70.38;102066.63;4840366;29;20546;-85
2022/01/27 12:47:42;;;;;;;12.97;2.87;;;;;;;18.05;70.78;102070.69;4875343;29;20450;-85
2022/01/27 12:50:22;;;;;;;17.43;2.87;;;;;;;18.10;70.97;102053.44;4858718;29;20479;-84
2022/01/27 12:52:59;;;;;;;11.07;3.07;;;;;;;18.21;70.84;102056.44;4860092;29;20447;-84
2022/01/27 12:55:47;;;;;;;10.73;2.70;;;;;;;18.32;70.37;102056.84;4861627;29;20853;-84
2022/01/27 12:58:17;;;;;;;12.37;2.33;;;;;;;18.31;70.59;102050.47;4844705;29;20476;-85
2022/01/27 13:00:50;;;;;;;19.37;3.30;;;;;;;18.34;71.24;102046.41;4860654;29;20448;-84
2022/01/27 13:03:19;;;;;;;9.27;1.90;;;;;;;18.39;71.60;102041.97;4845599;29;20478;-84